Time;durP1;ratioP1;P1;durP2;ratioP2;P2;SDS_P1;SDS_P2;PMS_P1;PMS_P2;Temp;Humidity;BMP_temperature;BMP_pressure;BME280_temperature;BME280_humidity;BME280_pressure;Samples;Min_cycle;Max_cycle;Signal;HPM_P1;HPM_P2
2022/10/12 00:01:33;;;;;;;22.75;10.27;;;;;;;3.67;72.23;99699.53;6229160;22;20035;-73
2022/10/12 00:03:57;;;;;;;18.67;9.70;;;;;;;3.65;72.32;99697.81;6202357;22;20016;-73
2022/10/12 00:06:24;;;;;;;23.98;10.48;;;;;;;3.63;72.24;99701.44;6229516;22;20020;-72
2022/10/12 00:08:50;;;;;;;31.27;9.60;;;;;;;3.61;72.70;99698.88;6228877;22;20623;-71
2022/10/12 00:11:21;;;;;;;23.85;10.65;;;;;;;3.63;72.71;99697.03;6227441;22;20401;-69
2022/10/12 00:13:45;;;;;;;22.85;9.48;;;;;;;3.62;72.83;99702.34;6223642;22;20020;-73
2022/10/12 00:16:18;;;;;;;26.95;10.77;;;;;;;3.65;72.79;99699.59;6228002;22;20022;-68
2022/10/12 00:18:42;;;;;;;20.90;10.82;;;;;;;3.62;72.65;99691.81;6201820;22;20020;-70
2022/10/12 00:21:13;;;;;;;20.60;9.98;;;;;;;3.65;73.23;99694.34;6228763;22;20477;-69
2022/10/12 00:23:39;;;;;;;22.25;11.00;;;;;;;3.65;72.92;99692.56;6202027;22;20069;-69
2022/10/12 00:26:12;;;;;;;24.33;11.32;;;;;;;3.70;72.92;99700.28;6229261;22;20058;-69
2022/10/12 00:28:37;;;;;;;23.80;10.43;;;;;;;3.68;73.10;99685.44;6230172;22;20015;-77
2022/10/12 00:31:11;;;;;;;22.95;10.95;;;;;;;3.70;73.07;99684.47;6229840;22;20168;-71
2022/10/12 00:33:39;;;;;;;23.50;11.32;;;;;;;3.68;72.84;99688.94;6238323;22;20022;-70
2022/10/12 00:36:16;;;;;;;20.60;10.57;;;;;;;3.71;72.73;99680.03;6229387;22;20107;-72
2022/10/12 00:38:40;;;;;;;19.75;10.73;;;;;;;3.67;72.83;99681.09;6230147;22;20016;-73
2022/10/12 00:41:05;;;;;;;23.75;12.63;;;;;;;3.67;72.70;99681.09;6233071;22;20019;-69
2022/10/12 00:43:40;;;;;;;25.45;11.80;;;;;;;3.67;72.76;99674.03;6237285;22;20381;-71
2022/10/12 00:46:30;;;;;;;25.15;11.30;;;;;;;3.68;72.92;99675.75;6229122;22;20020;-69
2022/10/12 00:49:11;;;;;;;21.20;10.68;;;;;;;3.71;72.59;99673.00;6213377;22;20470;-72
2022/10/12 00:51:38;;;;;;;27.05;11.05;;;;;;;3.63;72.74;99672.44;6240047;22;20019;-74
2022/10/12 00:54:06;;;;;;;23.60;10.95;;;;;;;3.63;72.71;99672.44;6231001;22;20026;-73
2022/10/12 00:56:37;;;;;;;19.83;11.73;;;;;;;3.64;72.65;99674.16;6229925;22;20066;-73
2022/10/12 00:59:05;;;;;;;22.17;11.98;;;;;;;3.63;72.32;99680.34;6231214;22;20786;-72
2022/10/12 01:01:33;;;;;;;25.85;10.27;;;;;;;3.62;72.53;99670.72;6229692;22;20324;-68
2022/10/12 01:03:58;;;;;;;27.25;11.18;;;;;;;3.65;72.38;99670.59;6229995;22;20015;-76
2022/10/12 01:06:22;;;;;;;24.27;11.38;;;;;;;3.67;72.43;99670.53;6230870;22;20016;-74
2022/10/12 01:08:48;;;;;;;22.38;10.98;;;;;;;3.67;72.89;99671.41;6232301;22;20011;-78
2022/10/12 01:11:12;;;;;;;23.60;11.45;;;;;;;3.66;73.16;99669.69;6206174;22;20023;-80
2022/10/12 01:13:37;;;;;;;23.88;11.35;;;;;;;3.65;72.87;99667.97;6235040;22;20354;-76
2022/10/12 01:16:19;;;;;;;22.15;11.68;;;;;;;3.69;72.83;99666.06;6231938;22;20069;-75
2022/10/12 01:19:05;;;;;;;23.35;11.25;;;;;;;3.62;72.47;99661.03;6230577;22;20046;-76
2022/10/12 01:21:36;;;;;;;23.73;11.93;;;;;;;3.57;72.42;99665.66;6232415;22;20061;-73
2022/10/12 01:24:42;;;;;;;23.42;10.77;;;;;;;3.61;72.65;99664.59;6231815;22;20394;-74
2022/10/12 01:27:25;;;;;;;21.75;10.60;;;;;;;3.52;72.48;99672.03;6228967;22;20018;-70
2022/10/12 01:30:09;;;;;;;28.05;12.68;;;;;;;3.55;72.19;99671.91;6235764;22;20026;-71
2022/10/12 01:32:46;;;;;;;33.28;11.85;;;;;;;3.47;72.92;99669.63;6240608;22;20438;-71
2022/10/12 01:35:42;;;;;;;27.52;11.20;;;;;;;3.51;73.10;99670.31;6240262;22;20015;-70
2022/10/12 01:38:31;;;;;;;25.40;10.95;;;;;;;3.49;73.01;99667.78;6229170;22;20019;-69
2022/10/12 01:41:05;;;;;;;24.60;11.52;;;;;;;3.45;72.96;99657.41;6229867;22;20011;-71
2022/10/12 01:43:35;;;;;;;24.58;11.85;;;;;;;3.41;73.15;99663.72;6230253;22;20530;-71
2022/10/12 01:46:26;;;;;;;31.60;11.80;;;;;;;3.44;72.96;99651.28;6228568;22;20533;-70
2022/10/12 01:48:56;;;;;;;21.75;10.82;;;;;;;3.37;73.31;99651.63;6233341;22;20529;-71
2022/10/12 01:51:33;;;;;;;24.13;10.98;;;;;;;3.36;73.12;99647.28;6238901;22;20019;-76
2022/10/12 01:54:22;;;;;;;22.73;12.15;;;;;;;3.40;73.13;99656.75;6206553;22;20026;-71
2022/10/12 01:57:16;;;;;;;23.60;11.27;;;;;;;3.40;73.43;99646.19;6232169;22;20069;-75
2022/10/12 02:00:02;;;;;;;22.52;10.48;;;;;;;3.37;73.59;99647.22;6083582;23;20013;-69
2022/10/12 02:03:00;;;;;;;24.48;11.95;;;;;;;3.34;73.82;99649.13;6115936;23;20021;-73
2022/10/12 02:05:30;;;;;;;20.13;10.77;;;;;;;3.29;73.35;99651.94;6116858;23;20101;-72
2022/10/12 02:08:10;;;;;;;21.23;10.63;;;;;;;3.35;73.60;99658.72;6057724;23;20118;-74
2022/10/12 02:11:00;;;;;;;23.80;11.07;;;;;;;3.31;73.56;99646.59;6082103;23;20349;-66
2022/10/12 02:13:29;;;;;;;20.90;11.38;;;;;;;3.31;73.35;99646.59;6106615;23;20021;-69
2022/10/12 02:15:57;;;;;;;20.40;12.32;;;;;;;3.27;73.36;99644.09;6106861;23;20025;-70
2022/10/12 02:18:23;;;;;;;22.67;10.77;;;;;;;3.26;73.33;99639.75;6056986;23;20052;-69
2022/10/12 02:20:52;;;;;;;25.75;11.25;;;;;;;3.26;73.85;99638.91;6107014;23;20025;-67
2022/10/12 02:23:23;;;;;;;21.05;9.85;;;;;;;3.27;73.69;99638.81;6106788;23;20045;-68
2022/10/12 02:25:50;;;;;;;25.67;12.05;;;;;;;3.27;73.66;99635.34;6106366;23;20104;-67
2022/10/12 02:28:19;;;;;;;18.23;10.80;;;;;;;3.31;73.56;99641.31;6082167;23;20028;-67
2022/10/12 02:30:52;;;;;;;32.60;11.40;;;;;;;3.32;73.74;99645.69;6106233;23;20029;-66
2022/10/12 02:33:25;;;;;;;17.80;9.95;;;;;;;3.33;73.95;99640.34;6106193;23;20017;-66
2022/10/12 02:36:04;;;;;;;20.60;9.63;;;;;;;3.36;73.95;99644.63;6154310;22;20020;-66
2022/10/12 02:38:37;;;;;;;20.27;10.68;;;;;;;3.36;73.46;99636.72;6228784;22;20023;-67
2022/10/12 02:41:07;;;;;;;18.95;10.18;;;;;;;3.38;73.57;99640.16;6229425;22;20012;-66
2022/10/12 02:43:57;;;;;;;21.92;9.88;;;;;;;3.39;73.34;99639.22;6230953;22;20351;-67
2022/10/12 02:46:24;;;;;;;23.10;11.10;;;;;;;3.38;73.41;99632.25;6228629;22;20390;-66
2022/10/12 02:48:50;;;;;;;28.95;11.35;;;;;;;3.37;73.13;99647.22;6229760;22;20023;-66
2022/10/12 02:51:17;;;;;;;22.98;11.02;;;;;;;3.38;73.18;99645.44;6228443;22;20023;-66
2022/10/12 02:53:44;;;;;;;21.92;12.65;;;;;;;3.37;73.27;99646.34;6229515;22;20381;-66
2022/10/12 02:56:13;;;;;;;25.85;14.13;;;;;;;3.39;73.18;99644.50;6229032;22;20478;-66
2022/10/12 02:58:42;;;;;;;25.05;12.20;;;;;;;3.35;72.78;99645.56;6227551;22;20019;-71
2022/10/12 03:01:06;;;;;;;25.15;11.40;;;;;;;3.33;73.25;99639.50;6233783;22;20015;-66
2022/10/12 03:03:31;;;;;;;23.30;11.18;;;;;;;3.32;72.96;99629.88;6232059;22;20023;-66
2022/10/12 03:05:55;;;;;;;24.08;11.43;;;;;;;3.29;72.56;99642.25;6231691;22;20073;-65
2022/10/12 03:08:20;;;;;;;20.80;11.93;;;;;;;3.25;72.18;99632.78;6236061;22;20014;-66
2022/10/12 03:10:45;;;;;;;20.02;10.82;;;;;;;3.24;72.17;99628.44;6229023;22;20520;-67
2022/10/12 03:13:09;;;;;;;17.95;10.80;;;;;;;3.19;72.66;99633.00;6231321;22;20090;-67
2022/10/12 03:15:34;;;;;;;22.73;11.68;;;;;;;3.16;72.50;99643.66;6233757;22;20027;-70
2022/10/12 03:17:58;;;;;;;35.72;12.35;;;;;;;3.14;72.71;99636.78;6228146;22;20299;-68
2022/10/12 03:20:23;;;;;;;20.08;10.70;;;;;;;3.13;72.75;99641.19;6232159;22;20076;-68
2022/10/12 03:22:48;;;;;;;16.67;9.85;;;;;;;3.13;72.84;99637.69;6235724;22;20027;-67
2022/10/12 03:25:13;;;;;;;21.45;10.98;;;;;;;3.14;72.74;99626.25;6227476;22;20007;-67
2022/10/12 03:27:38;;;;;;;22.40;10.75;;;;;;;3.16;72.85;99629.69;6228893;22;20023;-67
2022/10/12 03:30:03;;;;;;;16.95;9.73;;;;;;;3.18;72.71;99628.66;6228470;22;20031;-68
2022/10/12 03:32:28;;;;;;;18.23;10.10;;;;;;;3.19;72.39;99634.78;6227087;22;20055;-69
2022/10/12 03:34:52;;;;;;;23.42;10.98;;;;;;;3.17;72.60;99624.31;6228541;22;20015;-68
2022/10/12 03:37:17;;;;;;;20.00;10.65;;;;;;;3.18;72.80;99630.44;6229070;22;20019;-68
2022/10/12 03:39:42;;;;;;;19.15;10.70;;;;;;;3.17;72.71;99634.84;6228839;22;20197;-69
2022/10/12 03:42:06;;;;;;;16.50;9.13;;;;;;;3.22;72.28;99625.00;6227398;22;20065;-68
2022/10/12 03:44:31;;;;;;;25.45;12.07;;;;;;;3.38;71.41;99625.22;6226638;22;20324;-69
2022/10/12 03:46:55;;;;;;;19.77;10.57;;;;;;;3.37;71.67;99625.28;6201073;22;20023;-68
2022/10/12 03:49:20;;;;;;;18.05;10.43;;;;;;;3.39;71.87;99628.69;6228597;22;20347;-68
2022/10/12 03:51:45;;;;;;;15.88;9.32;;;;;;;3.42;71.76;99628.56;6229123;22;20084;-68
2022/10/12 03:54:09;;;;;;;19.33;9.82;;;;;;;3.45;71.90;99625.78;6228341;22;20015;-68
2022/10/12 03:56:34;;;;;;;16.15;9.30;;;;;;;3.50;71.60;99629.94;6201684;22;20019;-69
2022/10/12 03:58:58;;;;;;;19.50;9.85;;;;;;;3.54;71.50;99628.88;6227768;22;20355;-69
2022/10/12 04:01:24;;;;;;;20.30;10.32;;;;;;;3.60;72.08;99625.16;6228823;22;20050;-66
2022/10/12 04:03:49;;;;;;;22.08;12.27;;;;;;;3.67;71.50;99621.31;6228634;22;20069;-66
2022/10/12 04:06:13;;;;;;;20.45;11.10;;;;;;;3.74;71.69;99624.53;6226757;22;20019;-66
2022/10/12 04:08:38;;;;;;;15.95;9.25;;;;;;;3.83;71.34;99622.38;6228683;22;20058;-66
2022/10/12 04:11:02;;;;;;;19.25;10.32;;;;;;;3.97;70.92;99617.31;6228455;22;20455;-67
2022/10/12 04:13:27;;;;;;;20.30;11.07;;;;;;;4.09;70.98;99621.16;6226783;22;20022;-67
2022/10/12 04:15:51;;;;;;;35.28;19.15;;;;;;;4.21;70.80;99619.75;6228431;22;20031;-67
2022/10/12 04:18:16;;;;;;;24.90;13.45;;;;;;;4.38;70.52;99617.22;6228677;22;20116;-68
2022/10/12 04:20:41;;;;;;;30.70;12.73;;;;;;;4.61;70.66;99616.13;6228296;22;20016;-68
2022/10/12 04:23:05;;;;;;;24.95;11.85;;;;;;;4.89;70.66;99624.41;6228880;22;20023;-68
2022/10/12 04:25:30;;;;;;;27.88;12.52;;;;;;;5.21;69.27;99614.91;6227172;22;20035;-68
2022/10/12 04:27:54;;;;;;;15.63;9.23;;;;;;;5.57;67.45;99621.91;6230036;22;20020;-68
2022/10/12 04:30:19;;;;;;;20.13;10.95;;;;;;;5.85;66.87;99622.19;6228761;22;20026;-68
2022/10/12 04:32:44;;;;;;;19.20;10.70;;;;;;;6.14;65.30;99618.88;6202625;22;20060;-67
2022/10/12 04:35:09;;;;;;;22.00;10.60;;;;;;;6.47;64.42;99625.91;6229007;22;20080;-68
2022/10/12 04:37:33;;;;;;;26.63;11.55;;;;;;;6.76;63.99;99625.19;6228152;22;20041;-68
2022/10/12 04:39:58;;;;;;;32.22;12.88;;;;;;;7.04;63.14;99632.41;6230503;22;20019;-68
2022/10/12 04:42:22;;;;;;;35.97;11.98;;;;;;;7.31;61.87;99629.97;6228611;22;20020;-68
2022/10/12 04:44:47;;;;;;;29.33;13.45;;;;;;;7.62;61.50;99619.25;6230075;22;20049;-68
2022/10/12 04:47:11;;;;;;;21.25;11.65;;;;;;;7.92;59.78;99619.19;6230583;22;20481;-68
2022/10/12 04:49:36;;;;;;;27.00;13.40;;;;;;;8.16;59.92;99613.31;6230405;22;20019;-68
2022/10/12 04:52:01;;;;;;;20.92;9.38;;;;;;;8.44;58.37;99620.47;6228601;22;20109;-68
2022/10/12 04:54:25;;;;;;;14.68;9.50;;;;;;;8.68;57.23;99622.41;6228728;22;20016;-68
2022/10/12 04:56:50;;;;;;;21.75;11.18;;;;;;;8.99;56.81;99615.97;6230555;22;20457;-68
2022/10/12 04:59:14;;;;;;;17.38;10.88;;;;;;;9.40;56.04;99610.56;6230427;22;20531;-67
2022/10/12 05:01:39;;;;;;;26.35;13.18;;;;;;;9.92;54.43;99611.47;6230243;22;20031;-66
2022/10/12 05:04:04;;;;;;;23.15;11.23;;;;;;;10.50;52.99;99617.09;6230574;22;20444;-69
2022/10/12 05:06:28;;;;;;;23.98;11.68;;;;;;;11.06;51.04;99625.44;6229218;22;20026;-68
2022/10/12 05:08:53;;;;;;;15.75;9.73;;;;;;;11.61;49.42;99624.00;6228402;22;20078;-68
2022/10/12 05:11:17;;;;;;;22.70;10.02;;;;;;;11.95;48.45;99616.97;6230265;22;20026;-68
2022/10/12 05:13:42;;;;;;;22.83;10.23;;;;;;;11.80;47.82;99619.00;6228488;22;20442;-67
2022/10/12 05:16:06;;;;;;;20.60;10.60;;;;;;;11.39;48.94;99621.25;6228034;22;20027;-68
2022/10/12 05:18:31;;;;;;;18.08;10.43;;;;;;;10.90;49.42;99625.75;6230270;22;20023;-69
2022/10/12 05:20:56;;;;;;;24.65;11.35;;;;;;;10.51;51.13;99624.13;6229987;22;20455;-67
2022/10/12 05:23:20;;;;;;;21.70;10.63;;;;;;;10.38;51.51;99623.31;6230364;22;20043;-68
2022/10/12 05:25:45;;;;;;;24.35;10.50;;;;;;;10.43;51.58;99620.31;6230155;22;20023;-68
2022/10/12 05:28:09;;;;;;;21.85;9.77;;;;;;;10.46;51.66;99623.63;6229022;22;20458;-68
2022/10/12 05:30:34;;;;;;;28.13;10.85;;;;;;;10.47;51.76;99621.81;6230147;22;20110;-68
2022/10/12 05:32:58;;;;;;;16.25;9.13;;;;;;;10.37;52.08;99626.94;6230545;22;20024;-68
2022/10/12 05:35:23;;;;;;;23.63;9.73;;;;;;;10.29;52.41;99623.09;6230788;22;20059;-69
2022/10/12 05:37:48;;;;;;;23.05;10.63;;;;;;;10.19;52.95;99621.09;6229966;22;20016;-70
2022/10/12 05:40:12;;;;;;;17.58;9.95;;;;;;;10.21;52.55;99623.66;6229625;22;20019;-69
2022/10/12 05:42:37;;;;;;;25.30;11.18;;;;;;;10.35;52.46;99622.69;6228508;22;20019;-71
2022/10/12 05:45:02;;;;;;;20.23;9.65;;;;;;;10.68;52.23;99627.41;6229765;22;20022;-69
2022/10/12 05:47:27;;;;;;;20.15;10.52;;;;;;;11.24;50.66;99618.75;6230214;22;20569;-69
2022/10/12 05:49:52;;;;;;;17.77;9.23;;;;;;;11.65;49.43;99620.13;6229986;22;20459;-68
2022/10/12 05:52:17;;;;;;;20.23;9.90;;;;;;;11.60;49.55;99620.50;6229751;22;20126;-68
2022/10/12 05:54:41;;;;;;;29.77;10.68;;;;;;;11.36;49.64;99613.47;6229683;22;20509;-69
2022/10/12 05:57:06;;;;;;;19.08;10.27;;;;;;;10.99;49.65;99616.22;6229696;22;20015;-68
2022/10/12 05:59:31;;;;;;;23.85;10.23;;;;;;;10.60;51.07;99619.97;6229594;22;20016;-67
2022/10/12 06:01:55;;;;;;;22.90;11.27;;;;;;;10.33;51.60;99616.59;6229860;22;20019;-68
2022/10/12 06:04:20;;;;;;;26.45;10.27;;;;;;;10.10;52.38;99613.72;6229481;22;20015;-68
2022/10/12 06:06:44;;;;;;;27.73;10.13;;;;;;;9.94;53.14;99625.53;6229924;22;20019;-68
2022/10/12 06:09:11;;;;;;;19.90;9.85;;;;;;;9.89;54.07;99622.34;6230113;22;20396;-69
2022/10/12 06:11:35;;;;;;;22.35;9.60;;;;;;;9.98;53.88;99625.22;6229724;22;20023;-68
2022/10/12 06:14:00;;;;;;;19.48;9.93;;;;;;;10.36;52.88;99627.06;6229292;22;20026;-68
2022/10/12 06:16:24;;;;;;;27.65;10.57;;;;;;;11.16;51.74;99617.63;6229219;22;20148;-66
2022/10/12 06:18:49;;;;;;;20.30;9.57;;;;;;;12.63;47.78;99624.91;6227866;22;20473;-67
2022/10/12 06:21:14;;;;;;;24.83;10.60;;;;;;;13.99;44.05;99625.16;6227466;22;20086;-68
2022/10/12 06:23:38;;;;;;;25.50;8.85;;;;;;;14.92;40.84;99619.63;6228112;22;20026;-68
2022/10/12 06:26:03;;;;;;;22.95;8.50;;;;;;;14.94;40.05;99622.19;6228893;22;20015;-68
2022/10/12 06:28:27;;;;;;;21.67;8.10;;;;;;;14.45;40.11;99630.06;6229405;22;20020;-68
2022/10/12 06:30:57;;;;;;;14.85;7.97;;;;;;;13.84;40.94;99623.78;6229431;22;20344;-69
2022/10/12 06:33:23;;;;;;;16.25;7.60;;;;;;;13.25;41.96;99623.44;6229364;22;20016;-68
2022/10/12 06:35:47;;;;;;;15.30;7.85;;;;;;;12.76;42.35;99622.06;6229479;22;20119;-68
2022/10/12 06:38:12;;;;;;;15.32;7.22;;;;;;;12.41;43.68;99624.06;6227148;22;20043;-68
2022/10/12 06:40:36;;;;;;;22.83;8.27;;;;;;;12.20;43.70;99615.88;6227754;22;20023;-68
2022/10/12 06:43:01;;;;;;;18.20;7.72;;;;;;;12.13;44.93;99606.66;6229673;22;20022;-68
2022/10/12 06:45:26;;;;;;;22.15;8.90;;;;;;;11.98;43.93;99603.34;6234104;22;20065;-68
2022/10/12 06:47:50;;;;;;;17.30;8.00;;;;;;;11.94;45.31;99602.75;6228739;22;20350;-69
2022/10/12 06:50:15;;;;;;;16.52;9.38;;;;;;;11.92;44.82;99604.69;6228017;22;20064;-68
2022/10/12 06:52:40;;;;;;;19.10;7.03;;;;;;;11.97;45.31;99599.81;6229742;22;20351;-68
2022/10/12 06:55:05;;;;;;;18.67;6.95;;;;;;;12.05;44.73;99595.72;6229064;22;20021;-68
2022/10/12 06:57:30;;;;;;;10.50;7.60;;;;;;;12.15;44.95;99600.22;6229413;22;20023;-67
2022/10/12 06:59:54;;;;;;;10.85;6.32;;;;;;;12.27;44.60;99603.75;6228869;22;20025;-69
2022/10/12 07:02:19;;;;;;;11.65;6.85;;;;;;;12.40;44.57;99612.50;6229251;22;20463;-69
2022/10/12 07:04:43;;;;;;;14.20;8.00;;;;;;;12.57;44.46;99600.44;6229353;22;20012;-68
2022/10/12 07:07:08;;;;;;;13.30;8.48;;;;;;;12.80;43.78;99602.13;6227345;22;20084;-67
2022/10/12 07:09:33;;;;;;;19.88;6.85;;;;;;;13.19;43.44;99602.53;6229266;22;20069;-68
2022/10/12 07:11:57;;;;;;;13.70;6.35;;;;;;;14.80;41.73;99602.78;6228943;22;20015;-68
2022/10/12 07:14:22;;;;;;;20.27;6.35;;;;;;;17.38;36.49;99589.88;6228516;22;20015;-68
2022/10/12 07:16:47;;;;;;;13.30;5.55;;;;;;;20.07;32.31;99593.56;6228524;22;20146;-69
2022/10/12 07:19:11;;;;;;;13.35;6.30;;;;;;;22.56;28.33;99600.50;6228987;22;20020;-66
2022/10/12 07:21:36;;;;;;;10.27;6.10;;;;;;;24.57;25.49;99680.22;6230205;22;20073;-66
2022/10/12 07:24:00;;;;;;;11.38;6.93;;;;;;;26.25;23.35;99590.28;6228498;22;20019;-67
2022/10/12 07:26:25;;;;;;;13.25;6.38;;;;;;;27.73;21.63;99592.09;6228702;22;20016;-67
2022/10/12 07:28:50;;;;;;;15.15;6.25;;;;;;;29.05;20.39;99600.97;6231051;22;20035;-67
2022/10/12 07:31:15;;;;;;;10.05;6.20;;;;;;;29.95;19.08;99601.81;6230993;22;20023;-67
2022/10/12 07:33:40;;;;;;;16.55;7.10;;;;;;;31.01;18.60;99607.13;6230236;22;20022;-68
2022/10/12 07:36:05;;;;;;;11.93;7.15;;;;;;;32.29;17.22;99602.91;6231128;22;20090;-68
2022/10/12 07:38:30;;;;;;;10.60;5.80;;;;;;;32.58;16.11;99594.53;6230177;22;20039;-68
2022/10/12 07:41:01;;;;;;;10.52;6.97;;;;;;;31.92;16.77;99608.09;6230123;22;20023;-67
2022/10/12 07:43:26;;;;;;;13.70;6.47;;;;;;;30.82;17.60;99602.81;6232051;22;20019;-68
2022/10/12 07:45:51;;;;;;;9.27;6.35;;;;;;;29.68;18.27;99595.91;6231417;22;20023;-67
2022/10/12 07:48:16;;;;;;;10.88;7.20;;;;;;;28.90;19.32;99596.69;6231294;22;20015;-68
2022/10/12 07:50:40;;;;;;;11.40;6.75;;;;;;;28.57;20.16;99592.63;6229394;22;20320;-67
2022/10/12 07:53:05;;;;;;;17.02;7.25;;;;;;;28.17;20.13;99593.00;6228652;22;20022;-68
2022/10/12 07:55:30;;;;;;;15.77;7.40;;;;;;;27.60;20.53;99581.22;6226852;22;20516;-68
2022/10/12 07:57:55;;;;;;;16.48;7.38;;;;;;;27.03;20.75;99588.47;6227272;22;20070;-68
2022/10/12 08:00:21;;;;;;;10.63;6.13;;;;;;;26.53;21.43;99595.53;6228717;22;20016;-69
2022/10/12 08:02:45;;;;;;;17.25;7.43;;;;;;;26.11;22.17;99585.88;6230389;22;20015;-67
2022/10/12 08:05:10;;;;;;;14.65;6.68;;;;;;;25.94;22.32;99581.91;6230444;22;20118;-67
2022/10/12 08:07:35;;;;;;;21.42;8.73;;;;;;;25.49;22.73;99586.25;6228498;22;20015;-67
2022/10/12 08:09:59;;;;;;;19.52;7.40;;;;;;;24.69;23.61;99586.97;6229205;22;20026;-68
2022/10/12 08:12:24;;;;;;;14.60;7.25;;;;;;;23.77;24.48;99589.84;6230744;22;20026;-68
2022/10/12 08:14:48;;;;;;;13.60;6.90;;;;;;;22.87;25.65;99584.88;6230668;22;20530;-67
2022/10/12 08:17:13;;;;;;;10.82;6.78;;;;;;;22.04;27.01;99590.53;6230606;22;20021;-68
2022/10/12 08:19:38;;;;;;;14.98;6.43;;;;;;;21.26;27.93;99582.63;6229531;22;20073;-67
2022/10/12 08:22:02;;;;;;;8.48;6.05;;;;;;;20.54;28.88;99585.50;6229817;22;20019;-67
2022/10/12 08:24:27;;;;;;;8.20;5.57;;;;;;;19.94;30.08;99582.41;6229959;22;20023;-70
2022/10/12 08:26:52;;;;;;;12.32;6.38;;;;;;;19.39;30.83;99593.88;6230506;22;20016;-67
2022/10/12 08:29:16;;;;;;;11.02;5.53;;;;;;;19.01;31.84;99589.91;6228597;22;20450;-68
2022/10/12 08:31:41;;;;;;;8.60;5.43;;;;;;;18.73;32.48;99591.16;6228933;22;20011;-68
2022/10/12 08:34:05;;;;;;;9.40;5.45;;;;;;;18.51;32.86;99587.97;6229202;22;20019;-67
2022/10/12 08:36:30;;;;;;;15.23;6.85;;;;;;;18.37;32.94;99598.56;6230741;22;20116;-68
2022/10/12 08:38:55;;;;;;;8.48;5.95;;;;;;;18.23;33.65;99593.75;6230458;22;20089;-69
2022/10/12 08:41:35;;;;;;;13.57;6.72;;;;;;;18.25;33.44;99602.53;6230569;22;20019;-69
2022/10/12 08:44:02;;;;;;;11.27;5.47;;;;;;;18.09;33.86;99596.00;6230793;22;20026;-68
2022/10/12 08:46:28;;;;;;;17.02;6.50;;;;;;;18.03;34.29;99598.50;6231551;22;20019;-68
2022/10/12 08:48:55;;;;;;;19.45;7.22;;;;;;;18.07;34.09;99594.47;6228825;22;20019;-68
2022/10/12 08:51:24;;;;;;;16.15;6.85;;;;;;;18.04;34.45;99590.28;6230430;22;20023;-68
2022/10/12 08:54:02;;;;;;;13.32;6.47;;;;;;;18.13;34.25;99594.72;6230532;22;20020;-69
2022/10/12 08:56:26;;;;;;;13.23;7.05;;;;;;;18.07;34.63;99591.78;6225421;22;20346;-69
2022/10/12 08:58:52;;;;;;;21.27;7.60;;;;;;;18.23;34.38;99600.00;6229029;22;20324;-68
2022/10/12 09:01:31;;;;;;;23.75;6.80;;;;;;;18.43;34.36;99593.34;6228662;22;20015;-69
2022/10/12 09:04:09;;;;;;;14.93;6.63;;;;;;;18.71;33.93;99604.00;6240671;22;20039;-69
2022/10/12 09:07:00;;;;;;;16.23;6.65;;;;;;;18.88;33.67;99592.22;6230512;22;20020;-68
2022/10/12 09:09:40;;;;;;;11.45;5.53;;;;;;;18.87;33.80;99593.22;6230032;22;20019;-69
2022/10/12 09:12:45;;;;;;;12.80;5.75;;;;;;;18.84;33.53;99588.19;6230487;22;20350;-69
2022/10/12 09:15:15;;;;;;;18.70;5.03;;;;;;;18.62;33.17;99583.38;6228524;22;20030;-67
2022/10/12 09:17:46;;;;;;;11.35;5.90;;;;;;;18.59;33.30;99592.63;6230106;22;20502;-66
2022/10/12 09:20:17;;;;;;;14.32;5.03;;;;;;;18.63;33.07;99580.47;6230332;22;20512;-66
2022/10/12 09:22:46;;;;;;;7.05;5.00;;;;;;;18.65;32.77;99583.00;6230097;22;20424;-67
2022/10/12 09:25:14;;;;;;;11.30;5.72;;;;;;;18.76;32.81;99586.28;6230674;22;20093;-66
2022/10/12 09:27:40;;;;;;;11.07;4.57;;;;;;;18.79;32.42;99580.53;6230499;22;20524;-67
2022/10/12 09:30:05;;;;;;;9.98;5.55;;;;;;;18.73;32.91;99586.63;6228474;22;20454;-67
2022/10/12 09:33:03;;;;;;;11.48;5.50;;;;;;;18.89;33.05;99585.81;6226529;22;20470;-67
2022/10/12 09:35:28;;;;;;;12.32;5.78;;;;;;;18.67;32.83;99581.84;6226496;22;20100;-67
2022/10/12 09:37:53;;;;;;;10.75;5.40;;;;;;;18.65;33.64;99585.72;6225701;22;20052;-67
2022/10/12 09:40:29;;;;;;;14.63;5.78;;;;;;;18.70;33.08;99586.94;6199345;22;20016;-66
2022/10/12 09:42:56;;;;;;;13.20;5.55;;;;;;;18.63;33.74;99591.28;6228111;22;20054;-67
2022/10/12 09:45:22;;;;;;;35.10;19.75;;;;;;;18.62;33.83;99584.22;6230592;22;20011;-67
2022/10/12 09:48:11;;;;;;;15.00;7.97;;;;;;;18.79;33.67;99590.50;6230423;22;20020;-67
2022/10/12 09:50:40;;;;;;;13.88;6.07;;;;;;;18.49;33.92;99581.91;6230544;22;20019;-67
2022/10/12 09:53:19;;;;;;;13.23;5.82;;;;;;;18.45;33.97;99585.09;6230350;22;20023;-66
2022/10/12 09:55:52;;;;;;;8.75;5.68;;;;;;;18.22;34.30;99586.66;6228777;22;20351;-68
2022/10/12 09:58:19;;;;;;;10.23;5.97;;;;;;;18.01;34.62;99587.03;6227919;22;20439;-69
2022/10/12 10:00:44;;;;;;;14.95;6.70;;;;;;;17.94;34.86;99594.91;6228342;22;20019;-68
2022/10/12 10:03:23;;;;;;;24.42;7.18;;;;;;;18.05;34.98;99597.34;6228464;22;20020;-70
2022/10/12 10:06:02;;;;;;;14.48;6.85;;;;;;;18.10;35.33;99599.56;6229936;22;20016;-70
2022/10/12 10:08:27;;;;;;;12.85;6.60;;;;;;;18.08;35.08;99596.16;6228331;22;20393;-69
2022/10/12 10:10:58;;;;;;;11.52;6.85;;;;;;;18.31;34.87;99596.47;6229742;22;20400;-68
2022/10/12 10:13:27;;;;;;;9.13;5.95;;;;;;;18.46;34.37;99595.72;6230657;22;20710;-68
2022/10/12 10:16:03;;;;;;;16.23;7.45;;;;;;;18.63;34.75;99593.13;6227484;22;20102;-68
2022/10/12 10:18:38;;;;;;;11.13;6.22;;;;;;;18.59;34.06;99591.78;6228094;22;20023;-68
2022/10/12 10:21:07;;;;;;;13.98;6.95;;;;;;;18.27;34.67;99601.38;6229592;22;20257;-68
2022/10/12 10:23:38;;;;;;;10.70;5.55;;;;;;;18.06;34.93;99587.38;6228132;22;20351;-68
2022/10/12 10:26:07;;;;;;;14.27;6.78;;;;;;;17.90;35.22;99595.38;6229669;22;20035;-70
2022/10/12 10:28:34;;;;;;;10.20;5.78;;;;;;;17.71;35.78;99605.38;6237789;22;20351;-70
2022/10/12 10:31:06;;;;;;;14.82;5.82;;;;;;;17.54;35.26;99602.63;6237541;22;20026;-69
2022/10/12 10:33:33;;;;;;;9.93;6.13;;;;;;;17.24;36.52;99593.09;6236579;22;20019;-70
2022/10/12 10:36:03;;;;;;;12.70;6.00;;;;;;;17.08;37.13;99599.16;6230040;22;20106;-70
2022/10/12 10:38:31;;;;;;;13.27;6.32;;;;;;;17.03;37.58;99591.53;6230497;22;20020;-71
2022/10/12 10:40:58;;;;;;;13.07;6.28;;;;;;;17.20;37.58;99589.00;6233054;22;20015;-73
2022/10/12 10:43:28;;;;;;;13.20;6.22;;;;;;;17.46;36.28;99600.72;6231466;22;20092;-73
2022/10/12 10:45:57;;;;;;;7.05;4.82;;;;;;;17.48;36.00;99606.81;6236901;22;20015;-72
2022/10/12 10:48:27;;;;;;;11.50;4.85;;;;;;;17.28;36.13;99598.00;6233305;22;20821;-72
2022/10/12 10:50:59;;;;;;;9.75;5.55;;;;;;;16.96;37.14;99597.66;6230252;22;20019;-71
2022/10/12 10:53:26;;;;;;;11.95;5.28;;;;;;;16.56;37.88;99598.00;6228559;22;20019;-71
2022/10/12 10:56:02;;;;;;;10.45;5.63;;;;;;;16.27;38.34;99603.47;6230454;22;20347;-74
2022/10/12 10:58:35;;;;;;;9.95;5.65;;;;;;;15.85;39.11;99598.50;6230231;22;20020;-73
2022/10/12 11:01:11;;;;;;;12.20;5.72;;;;;;;15.53;40.09;99601.47;6229010;22;20069;-71
2022/10/12 11:03:54;;;;;;;14.45;5.88;;;;;;;15.28;40.49;99610.09;6229720;22;20141;-70
2022/10/12 11:06:38;;;;;;;12.68;4.97;;;;;;;15.06;41.50;99613.88;6229574;22;20015;-68
2022/10/12 11:09:17;;;;;;;7.75;5.00;;;;;;;14.85;42.00;99608.63;6228266;22;20357;-67
2022/10/12 11:11:45;;;;;;;14.70;6.35;;;;;;;14.50;42.17;99611.75;6229772;22;20362;-67
2022/10/12 11:14:18;;;;;;;17.35;8.25;;;;;;;14.30;43.45;99611.78;6227268;22;20359;-72
2022/10/12 11:16:49;;;;;;;14.40;6.25;;;;;;;14.10;43.50;99625.09;6226019;22;20020;-73
2022/10/12 11:19:43;;;;;;;13.23;5.95;;;;;;;13.99;43.45;99629.66;6224544;22;20020;-72
2022/10/12 11:22:18;;;;;;;12.25;5.60;;;;;;;13.88;44.43;99640.47;6238557;22;20019;-70
2022/10/12 11:24:54;;;;;;;11.10;5.28;;;;;;;13.84;44.42;99639.84;6240058;22;20022;-70
2022/10/12 11:27:48;;;;;;;10.82;5.18;;;;;;;13.91;44.49;99634.81;6229389;22;20098;-71
2022/10/12 11:30:20;;;;;;;11.20;5.80;;;;;;;13.93;45.03;99636.38;6106756;23;20055;-72
2022/10/12 11:32:58;;;;;;;20.00;6.30;;;;;;;14.00;44.76;99642.91;6107141;23;20131;-72
2022/10/12 11:35:36;;;;;;;11.80;5.88;;;;;;;14.16;44.50;99637.09;6105937;23;20063;-74